createdAt,value
2022-12-08T00:01:19.873Z,3.79
2022-12-08T00:03:47.482Z,3.69
2022-12-08T00:06:52.758Z,3.81
2022-12-08T00:09:39.651Z,3.72
2022-12-08T00:12:16.549Z,3.71
2022-12-08T00:14:45.958Z,3.73
2022-12-08T00:17:15.341Z,3.71
2022-12-08T00:19:43.443Z,3.68
2022-12-08T00:22:12.293Z,3.68
2022-12-08T00:24:40.492Z,3.67
2022-12-08T00:27:09.121Z,3.69
2022-12-08T00:29:36.218Z,3.70
2022-12-08T00:32:03.831Z,3.73
2022-12-08T00:34:31.880Z,3.75
2022-12-08T00:36:59.898Z,3.71
2022-12-08T00:39:26.992Z,3.68
2022-12-08T00:42:12.229Z,3.65
2022-12-08T00:44:41.084Z,3.64
2022-12-08T00:47:08.168Z,3.55
2022-12-08T00:49:35.386Z,3.55
2022-12-08T00:52:02.876Z,3.63
2022-12-08T00:54:30.024Z,3.55
2022-12-08T00:56:57.101Z,3.59
2022-12-08T00:59:24.332Z,3.64
2022-12-08T01:01:51.547Z,3.59
2022-12-08T01:04:19.693Z,3.68
2022-12-08T01:06:47.650Z,3.67
2022-12-08T01:09:16.155Z,3.70
2022-12-08T01:11:44.576Z,3.70
2022-12-08T01:14:12.995Z,3.68
2022-12-08T01:16:41.521Z,3.71
2022-12-08T01:19:14.078Z,3.75
2022-12-08T01:21:42.243Z,3.63
2022-12-08T01:24:19.293Z,3.68
2022-12-08T01:26:47.607Z,3.63
2022-12-08T01:29:15.026Z,3.67
2022-12-08T01:31:42.726Z,3.63
2022-12-08T01:34:11.113Z,3.64
2022-12-08T01:36:39.239Z,3.63
2022-12-08T01:39:14.295Z,3.55
2022-12-08T01:41:41.740Z,3.56
2022-12-08T01:44:08.847Z,3.53
2022-12-08T01:46:38.076Z,3.62
2022-12-08T01:49:06.844Z,3.60
2022-12-08T01:51:42.778Z,3.52
2022-12-08T01:54:12.302Z,3.49
2022-12-08T01:56:47.274Z,3.40
2022-12-08T01:59:14.682Z,3.42
2022-12-08T02:01:41.824Z,3.39
2022-12-08T02:04:10.265Z,3.39
2022-12-08T02:06:43.861Z,3.32
2022-12-08T02:09:11.847Z,3.48
2022-12-08T02:11:38.942Z,3.47
2022-12-08T02:14:08.280Z,3.40
2022-12-08T02:16:48.903Z,3.43
2022-12-08T02:19:34.473Z,3.45
2022-12-08T02:22:10.386Z,3.46
2022-12-08T02:24:44.426Z,3.49
2022-12-08T02:27:40.309Z,3.52
2022-12-08T02:30:38.416Z,3.52
2022-12-08T02:33:36.402Z,3.57
2022-12-08T02:36:23.474Z,3.55
2022-12-08T02:39:08.836Z,3.53
2022-12-08T02:42:12.709Z,3.45
2022-12-08T02:44:47.197Z,3.44
2022-12-08T02:47:18.659Z,3.46
2022-12-08T02:49:46.539Z,3.51
2022-12-08T02:52:13.565Z,3.47
2022-12-08T02:54:45.128Z,3.50
2022-12-08T02:57:43.167Z,3.47
2022-12-08T03:00:19.995Z,3.48
2022-12-08T03:03:11.266Z,3.50
2022-12-08T03:06:06.606Z,3.54
2022-12-08T03:09:14.182Z,3.52
2022-12-08T03:12:25.263Z,3.57
2022-12-08T03:14:55.236Z,3.48
2022-12-08T03:17:26.243Z,3.60
2022-12-08T03:19:54.509Z,3.61
2022-12-08T03:22:25.937Z,3.57
2022-12-08T03:24:54.057Z,3.49
2022-12-08T03:27:24.828Z,3.51
2022-12-08T03:29:54.650Z,3.48
2022-12-08T03:32:54.111Z,3.48
2022-12-08T03:35:25.906Z,3.51
2022-12-08T03:38:02.851Z,3.40
2022-12-08T03:40:30.016Z,3.39
2022-12-08T03:42:57.145Z,3.40
2022-12-08T03:45:24.315Z,3.42
2022-12-08T03:47:51.660Z,3.46
2022-12-08T03:50:18.862Z,3.45
2022-12-08T03:52:45.950Z,3.42
2022-12-08T03:55:13.197Z,3.49
2022-12-08T03:57:40.514Z,3.55
2022-12-08T04:00:12.910Z,3.55
2022-12-08T04:02:40.067Z,3.49
2022-12-08T04:05:07.536Z,3.58
2022-12-08T04:07:34.637Z,3.48
2022-12-08T04:10:02.112Z,3.58
2022-12-08T04:12:29.558Z,3.50
2022-12-08T04:14:56.658Z,3.47
2022-12-08T04:17:23.738Z,3.51
2022-12-08T04:19:50.811Z,3.51
2022-12-08T04:22:17.941Z,3.51
2022-12-08T04:24:45.040Z,3.50
2022-12-08T04:27:12.135Z,3.50
2022-12-08T04:29:39.208Z,3.49
2022-12-08T04:32:06.306Z,3.54
2022-12-08T04:34:33.802Z,3.52
2022-12-08T04:37:00.861Z,3.57
2022-12-08T04:39:27.975Z,3.62
2022-12-08T04:41:55.137Z,3.58
2022-12-08T04:44:23.357Z,3.61
2022-12-08T04:46:50.473Z,3.66
2022-12-08T04:49:17.653Z,3.66
2022-12-08T04:51:44.751Z,3.59
2022-12-08T04:54:11.833Z,3.61
2022-12-08T04:56:38.957Z,3.54
2022-12-08T04:59:06.151Z,3.57
2022-12-08T05:01:33.345Z,3.61
2022-12-08T05:04:00.580Z,3.69
2022-12-08T05:06:27.687Z,3.80
2022-12-08T05:08:54.878Z,3.72
2022-12-08T05:11:21.955Z,3.78
2022-12-08T05:13:49.064Z,3.77
2022-12-08T05:16:16.730Z,3.76
2022-12-08T05:18:44.135Z,3.78
2022-12-08T05:21:11.540Z,3.73
2022-12-08T05:23:38.715Z,3.74
2022-12-08T05:26:06.149Z,3.72
2022-12-08T05:28:42.664Z,3.75
2022-12-08T05:31:15.131Z,3.80
2022-12-08T05:33:43.704Z,3.74
2022-12-08T05:36:13.577Z,3.76
2022-12-08T05:38:40.873Z,3.83
2022-12-08T05:41:09.432Z,3.84
2022-12-08T05:43:36.591Z,3.92
2022-12-08T05:46:03.829Z,3.87
2022-12-08T05:48:31.174Z,3.87
2022-12-08T05:50:58.336Z,3.89
2022-12-08T05:53:25.725Z,3.88
2022-12-08T05:55:53.481Z,3.96
2022-12-08T05:58:22.473Z,3.92
2022-12-08T06:00:50.532Z,3.91
2022-12-08T06:03:19.642Z,3.94
2022-12-08T06:05:47.613Z,3.92
2022-12-08T06:08:14.850Z,3.86
2022-12-08T06:10:43.628Z,3.80
2022-12-08T06:13:11.131Z,3.93
2022-12-08T06:15:39.017Z,3.89
2022-12-08T06:18:07.342Z,3.89
2022-12-08T06:20:34.787Z,3.95
2022-12-08T06:23:03.381Z,3.93
2022-12-08T06:25:30.690Z,3.87
2022-12-08T06:27:57.777Z,3.94
2022-12-08T06:30:24.983Z,3.86
2022-12-08T06:32:52.064Z,3.82
2022-12-08T06:35:19.216Z,3.89
2022-12-08T06:37:46.338Z,3.95
2022-12-08T06:40:13.904Z,4.00
2022-12-08T06:42:43.628Z,3.93
2022-12-08T06:45:12.826Z,3.91
2022-12-08T06:47:40.263Z,3.99
2022-12-08T06:50:08.551Z,4.02
2022-12-08T06:52:43.170Z,4.01
2022-12-08T06:55:35.361Z,4.07
2022-12-08T06:58:01.721Z,4.07
2022-12-08T07:00:28.827Z,4.18
2022-12-08T07:02:55.955Z,4.19
2022-12-08T07:05:23.087Z,4.14
2022-12-08T07:07:50.256Z,4.19
2022-12-08T07:10:17.644Z,4.23
2022-12-08T07:12:45.319Z,4.21
2022-12-08T07:15:12.490Z,4.27
2022-12-08T07:17:39.572Z,4.31
2022-12-08T07:20:07.743Z,4.35
2022-12-08T07:22:34.956Z,4.41
2022-12-08T07:25:02.024Z,4.39
2022-12-08T07:27:29.177Z,4.54
2022-12-08T07:29:56.271Z,9.44
2022-12-08T07:32:23.398Z,11.54
2022-12-08T07:34:50.489Z,13.10
2022-12-08T07:37:17.568Z,12.66
2022-12-08T07:39:44.725Z,11.45
2022-12-08T07:42:11.816Z,8.56
2022-12-08T07:44:38.896Z,7.21
2022-12-08T07:47:05.957Z,7.07
2022-12-08T07:49:33.196Z,6.28
2022-12-08T07:52:00.308Z,6.19
2022-12-08T07:54:27.986Z,5.92
2022-12-08T07:56:57.832Z,5.73
2022-12-08T07:59:24.986Z,5.63
2022-12-08T08:02:06.562Z,6.02
2022-12-08T08:04:39.221Z,5.81
2022-12-08T08:07:06.322Z,5.53
2022-12-08T08:09:34.152Z,5.49
2022-12-08T08:12:29.615Z,5.52
2022-12-08T08:14:48.413Z,5.50
2022-12-08T08:17:15.663Z,5.40
2022-12-08T08:19:42.859Z,5.26
2022-12-08T08:22:09.960Z,5.21
2022-12-08T08:24:41.572Z,5.24
2022-12-08T08:27:11.993Z,5.25
2022-12-08T08:29:39.117Z,5.26
2022-12-08T08:32:06.214Z,5.20
2022-12-08T08:34:33.365Z,5.06
2022-12-08T08:37:00.620Z,5.18
2022-12-08T08:39:27.795Z,5.25
2022-12-08T08:41:54.874Z,5.17
2022-12-08T08:44:22.064Z,5.15
2022-12-08T08:46:49.214Z,5.31
2022-12-08T08:49:16.345Z,5.49
2022-12-08T08:51:43.802Z,5.42
2022-12-08T08:54:11.053Z,5.36
2022-12-08T08:56:38.118Z,5.43
2022-12-08T08:59:05.262Z,5.40
2022-12-08T09:01:32.537Z,5.27
2022-12-08T09:03:59.786Z,5.51
2022-12-08T09:06:29.114Z,5.73
2022-12-08T09:08:56.471Z,5.66
2022-12-08T09:11:23.661Z,6.06
2022-12-08T09:13:52.138Z,6.15
2022-12-08T09:16:19.856Z,6.14
2022-12-08T09:18:49.237Z,6.41
2022-12-08T09:21:22.710Z,6.37
2022-12-08T09:23:50.724Z,6.51
2022-12-08T09:26:17.812Z,6.61
2022-12-08T09:28:46.557Z,6.63
2022-12-08T09:31:14.614Z,6.77
2022-12-08T09:33:42.009Z,6.71
2022-12-08T09:36:10.211Z,6.86
2022-12-08T09:38:38.431Z,6.90
2022-12-08T09:41:16.155Z,6.98
2022-12-08T09:44:01.972Z,6.88
2022-12-08T09:46:33.805Z,6.88
2022-12-08T09:49:03.362Z,6.77
2022-12-08T09:51:39.236Z,6.88
2022-12-08T09:54:13.212Z,7.06
2022-12-08T09:56:40.505Z,7.02
2022-12-08T09:59:29.421Z,6.97
2022-12-08T10:01:56.610Z,6.88
2022-12-08T10:04:25.627Z,6.87
2022-12-08T10:06:55.760Z,7.05
2022-12-08T10:09:32.177Z,7.40
2022-12-08T10:12:30.131Z,7.55
2022-12-08T10:15:24.744Z,7.54
2022-12-08T10:17:54.188Z,7.28
2022-12-08T10:20:28.251Z,7.32
2022-12-08T10:23:13.629Z,7.26
2022-12-08T10:25:55.522Z,7.05
2022-12-08T10:28:22.613Z,7.40
2022-12-08T10:30:49.769Z,7.30
2022-12-08T10:33:19.551Z,7.31
2022-12-08T10:35:46.636Z,7.46
2022-12-08T10:38:17.483Z,7.45
2022-12-08T10:40:46.805Z,7.64
2022-12-08T10:43:25.602Z,7.49
2022-12-08T10:45:52.761Z,7.57
2022-12-08T10:48:25.886Z,7.50
2022-12-08T10:50:56.625Z,7.43
2022-12-08T10:53:32.039Z,7.48
2022-12-08T10:56:02.137Z,7.68
2022-12-08T10:58:40.757Z,7.55
2022-12-08T11:01:26.737Z,7.53
2022-12-08T11:03:59.690Z,7.61
2022-12-08T11:06:40.830Z,7.78
2022-12-08T11:09:19.802Z,7.78
2022-12-08T11:11:49.766Z,7.97
2022-12-08T11:14:28.490Z,7.85
2022-12-08T11:17:21.663Z,7.73
2022-12-08T11:19:57.868Z,7.85
2022-12-08T11:22:38.339Z,7.95
2022-12-08T11:25:08.203Z,7.90
2022-12-08T11:27:37.308Z,7.93
2022-12-08T11:30:17.765Z,7.71
2022-12-08T11:33:03.478Z,7.57
2022-12-08T11:35:37.100Z,7.38
2022-12-08T11:38:21.543Z,7.56
2022-12-08T11:40:54.146Z,7.73
2022-12-08T11:43:25.680Z,8.04
2022-12-08T11:45:59.854Z,8.14
2022-12-08T11:48:35.539Z,8.29
2022-12-08T11:51:13.778Z,8.23
2022-12-08T11:54:06.949Z,7.86
2022-12-08T11:56:38.275Z,8.12
2022-12-08T11:59:29.575Z,8.14
2022-12-08T12:02:04.585Z,7.86
2022-12-08T12:04:46.109Z,7.81
2022-12-08T12:08:01.029Z,7.92
2022-12-08T12:10:48.483Z,8.13
2022-12-08T12:13:15.498Z,8.35
2022-12-08T12:16:00.788Z,8.86
2022-12-08T12:18:46.505Z,9.17
2022-12-08T12:21:29.241Z,9.10
2022-12-08T12:24:00.941Z,9.25
2022-12-08T12:26:31.066Z,9.17
2022-12-08T12:28:59.892Z,9.22
2022-12-08T12:31:36.798Z,9.08
2022-12-08T12:34:27.455Z,9.06
2022-12-08T12:37:05.546Z,9.25
2022-12-08T12:39:56.104Z,9.34
2022-12-08T12:42:49.219Z,9.48
2022-12-08T12:45:16.320Z,9.24
2022-12-08T12:48:06.484Z,9.13
2022-12-08T12:50:33.840Z,9.53
2022-12-08T12:53:12.358Z,9.65
2022-12-08T12:56:02.373Z,9.68
2022-12-08T12:58:32.079Z,9.82
2022-12-08T13:01:11.515Z,9.23
2022-12-08T13:03:44.021Z,10.02
2022-12-08T13:06:14.760Z,10.01
2022-12-08T13:08:52.278Z,10.02
2022-12-08T13:11:20.064Z,9.79
2022-12-08T13:13:58.680Z,9.78
2022-12-08T13:16:27.992Z,9.79
2022-12-08T13:19:02.355Z,9.75
2022-12-08T13:21:35.924Z,9.98
2022-12-08T13:24:17.755Z,10.14
2022-12-08T13:26:47.364Z,9.86
2022-12-08T13:29:17.318Z,9.89
2022-12-08T13:31:51.073Z,9.90
2022-12-08T13:34:21.376Z,9.65
2022-12-08T13:37:01.901Z,9.58
2022-12-08T13:40:01.659Z,9.14
2022-12-08T13:42:47.365Z,9.10
2022-12-08T13:45:43.563Z,8.92
2022-12-08T13:49:09.533Z,8.82
2022-12-08T13:57:32.895Z,8.54
2022-12-08T14:00:04.397Z,8.53
2022-12-08T14:02:48.163Z,8.30
2022-12-08T14:05:34.583Z,8.23
2022-12-08T14:08:36.363Z,8.19
2022-12-08T14:11:08.136Z,8.03
2022-12-08T14:13:35.322Z,8.03
2022-12-08T14:16:02.589Z,8.16
2022-12-08T14:18:31.484Z,8.20
2022-12-08T14:21:22.245Z,8.01
2022-12-08T14:23:49.431Z,7.95
2022-12-08T14:26:17.878Z,7.97
2022-12-08T14:28:45.503Z,7.88
2022-12-08T14:31:14.375Z,7.68
2022-12-08T14:33:42.475Z,7.61
2022-12-08T14:36:10.849Z,7.56
2022-12-08T14:38:38.187Z,7.44
2022-12-08T14:41:08.627Z,7.34
2022-12-08T14:43:36.146Z,7.22
2022-12-08T14:46:20.682Z,7.04
2022-12-08T14:48:47.918Z,6.96
2022-12-08T14:51:14.976Z,6.82
2022-12-08T14:53:52.221Z,6.75
2022-12-08T14:56:19.768Z,6.62
2022-12-08T14:58:49.006Z,6.51
2022-12-08T15:01:23.321Z,6.38
2022-12-08T15:03:51.649Z,6.34
2022-12-08T15:06:22.226Z,6.28
2022-12-08T15:09:28.913Z,6.24
2022-12-08T15:12:05.281Z,6.21
2022-12-08T15:14:37.881Z,6.16
2022-12-08T15:17:40.101Z,6.16
2022-12-08T15:20:30.024Z,6.20
2022-12-08T15:23:00.479Z,6.24
2022-12-08T15:25:27.590Z,6.28
2022-12-08T15:27:56.383Z,6.34
2022-12-08T15:30:26.337Z,6.31
2022-12-08T15:32:54.202Z,6.36
2022-12-08T15:35:21.524Z,6.23
2022-12-08T15:37:48.622Z,6.19
2022-12-08T15:40:21.620Z,6.17
2022-12-08T15:42:49.377Z,6.01
2022-12-08T15:45:17.244Z,5.95
2022-12-08T15:47:45.409Z,5.87
2022-12-08T15:50:20.828Z,5.73
2022-12-08T15:52:48.882Z,5.66
2022-12-08T15:55:18.308Z,5.59
2022-12-08T16:00:54.156Z,5.42
2022-12-08T16:04:13.866Z,5.38
2022-12-08T16:09:16.783Z,5.48
2022-12-08T16:12:08.485Z,5.48
2022-12-08T16:17:25.631Z,5.49
2022-12-08T16:19:53.313Z,5.44
2022-12-08T16:25:21.352Z,5.35
2022-12-08T16:28:08.195Z,5.29
2022-12-08T16:30:39.927Z,5.27
2022-12-08T16:33:07.228Z,5.27
2022-12-08T16:35:34.420Z,5.29
2022-12-08T16:38:01.617Z,5.21
2022-12-08T16:40:28.992Z,5.18
2022-12-08T16:42:56.108Z,5.21
2022-12-08T16:45:26.056Z,5.18
2022-12-08T16:47:57.459Z,5.29
2022-12-08T16:50:26.594Z,5.31
2022-12-08T16:53:05.757Z,5.31
2022-12-08T16:55:33.908Z,5.35
2022-12-08T16:58:02.694Z,5.41
2022-12-08T17:00:31.571Z,5.50
2022-12-08T17:02:58.947Z,5.57
2022-12-08T17:05:26.646Z,5.67
2022-12-08T17:07:54.411Z,5.68
2022-12-08T17:10:25.080Z,5.71
2022-12-08T17:12:52.310Z,5.69
2022-12-08T17:15:21.756Z,5.78
2022-12-08T17:17:49.176Z,5.79
2022-12-08T17:20:19.405Z,5.83
2022-12-08T17:22:47.367Z,5.86
2022-12-08T17:25:15.021Z,5.82
2022-12-08T17:27:42.674Z,5.83
2022-12-08T17:30:11.790Z,5.80
2022-12-08T17:32:39.063Z,5.80
2022-12-08T17:35:07.301Z,5.90
2022-12-08T17:37:34.724Z,5.82
2022-12-08T17:40:01.901Z,5.82
2022-12-08T17:42:29.070Z,5.86
2022-12-08T17:44:56.164Z,5.86
2022-12-08T17:47:23.305Z,5.84
2022-12-08T17:49:50.585Z,5.84
2022-12-08T17:52:17.767Z,5.81
2022-12-08T17:54:44.861Z,5.81
2022-12-08T17:57:12.064Z,5.81
2022-12-08T17:59:39.145Z,5.86
2022-12-08T18:02:06.765Z,5.91
2022-12-08T18:04:33.867Z,5.86
2022-12-08T18:07:01.384Z,5.82
2022-12-08T18:09:30.714Z,5.79
2022-12-08T18:11:58.054Z,5.84
2022-12-08T18:14:25.758Z,5.84
2022-12-08T18:16:52.937Z,5.82
2022-12-08T18:19:20.080Z,5.76
2022-12-08T18:21:47.294Z,5.73
2022-12-08T18:24:18.809Z,5.73
2022-12-08T18:26:46.987Z,5.78
2022-12-08T18:29:14.165Z,5.80
2022-12-08T18:31:41.268Z,5.85
2022-12-08T18:34:08.347Z,5.80
2022-12-08T18:36:35.474Z,5.80
2022-12-08T18:39:08.785Z,5.79
2022-12-08T18:41:37.793Z,5.82
2022-12-08T18:44:04.986Z,5.79
2022-12-08T18:46:32.149Z,5.81
2022-12-08T18:48:59.414Z,5.79
2022-12-08T18:51:26.802Z,5.80
2022-12-08T18:53:54.012Z,5.79
2022-12-08T18:56:31.013Z,5.81
2022-12-08T18:59:03.931Z,5.82
2022-12-08T19:01:36.832Z,5.82
2022-12-08T19:06:54.503Z,5.74
2022-12-08T19:09:22.325Z,5.73
2022-12-08T19:11:49.572Z,5.67
2022-12-08T19:14:16.700Z,5.70
2022-12-08T19:16:43.829Z,5.70
2022-12-08T19:19:10.907Z,5.72
2022-12-08T19:21:44.507Z,5.70
2022-12-08T19:24:13.136Z,5.73
2022-12-08T19:26:40.520Z,5.75
2022-12-08T19:29:08.030Z,5.69
2022-12-08T19:31:35.477Z,5.66
2022-12-08T19:34:03.240Z,5.68
2022-12-08T19:36:35.295Z,5.67
2022-12-08T19:39:22.238Z,5.69
2022-12-08T19:42:09.269Z,5.65
2022-12-08T19:44:54.332Z,5.62
2022-12-08T19:47:24.770Z,5.67
2022-12-08T19:49:54.966Z,5.65
2022-12-08T19:52:22.295Z,5.66
2022-12-08T19:54:49.415Z,5.61
2022-12-08T19:57:16.609Z,5.62
2022-12-08T19:59:43.728Z,5.57
2022-12-08T20:02:11.305Z,5.62
2022-12-08T20:04:38.511Z,5.59
2022-12-08T20:07:05.659Z,5.59
2022-12-08T20:09:32.820Z,5.66
2022-12-08T20:11:59.944Z,5.61
2022-12-08T20:14:27.045Z,5.67
2022-12-08T20:16:54.232Z,5.66
2022-12-08T20:19:21.448Z,5.73
2022-12-08T20:21:48.849Z,5.79
2022-12-08T20:24:17.163Z,5.76
2022-12-08T20:26:44.365Z,5.72
2022-12-08T20:29:12.017Z,5.81
2022-12-08T20:31:39.245Z,5.85
2022-12-08T20:34:06.410Z,5.78
2022-12-08T20:36:33.515Z,5.84
2022-12-08T20:39:00.686Z,5.86
2022-12-08T20:41:27.778Z,5.85
2022-12-08T20:43:55.016Z,5.85
2022-12-08T20:46:22.280Z,5.84
2022-12-08T20:48:49.735Z,5.86
2022-12-08T20:51:18.613Z,5.82
2022-12-08T20:53:46.821Z,5.83
2022-12-08T20:56:19.177Z,5.79
2022-12-08T20:58:46.995Z,5.81
2022-12-08T21:01:16.713Z,5.82
2022-12-08T21:03:45.292Z,5.75
2022-12-08T21:06:13.435Z,5.74
2022-12-08T21:08:41.847Z,5.76
2022-12-08T21:11:10.301Z,5.81
2022-12-08T21:13:38.533Z,5.77
2022-12-08T21:16:09.154Z,5.75
2022-12-08T21:18:39.600Z,5.71
2022-12-08T21:21:10.349Z,5.70
2022-12-08T21:23:37.566Z,5.73
2022-12-08T21:26:13.736Z,5.73
2022-12-08T21:28:41.619Z,5.78
2022-12-08T21:31:14.395Z,5.74
2022-12-08T21:33:41.805Z,5.74
2022-12-08T21:36:12.755Z,5.81
2022-12-08T21:38:40.839Z,5.78
2022-12-08T21:41:11.006Z,5.72
2022-12-08T21:43:38.419Z,5.74
2022-12-08T21:46:05.707Z,5.74
2022-12-08T21:48:33.462Z,5.73
2022-12-08T21:51:05.352Z,5.66
2022-12-08T21:53:32.701Z,5.62
2022-12-08T21:55:59.827Z,5.67
2022-12-08T21:58:27.139Z,5.61
2022-12-08T22:00:54.320Z,5.60
2022-12-08T22:03:21.848Z,5.62
2022-12-08T22:05:49.103Z,5.63
2022-12-08T22:08:16.418Z,5.56
2022-12-08T22:10:48.035Z,5.58
2022-12-08T22:13:15.182Z,5.61
2022-12-08T22:15:42.319Z,5.58
2022-12-08T22:18:11.292Z,5.63
2022-12-08T22:20:43.819Z,5.55
2022-12-08T22:23:11.882Z,5.51
2022-12-08T22:25:40.243Z,5.60
2022-12-08T22:28:07.361Z,5.60
2022-12-08T22:30:39.044Z,5.53
2022-12-08T22:33:06.672Z,5.48
2022-12-08T22:35:33.784Z,5.51
2022-12-08T22:38:01.057Z,5.52
2022-12-08T22:40:28.322Z,5.51
2022-12-08T22:42:55.521Z,5.50
2022-12-08T22:45:22.823Z,5.54
2022-12-08T22:47:50.204Z,5.60
2022-12-08T22:50:17.316Z,5.58
2022-12-08T22:52:44.414Z,5.59
2022-12-08T22:55:11.480Z,5.49
2022-12-08T22:57:38.784Z,5.38
2022-12-08T23:00:09.904Z,5.38
2022-12-08T23:02:38.256Z,5.44
2022-12-08T23:05:05.972Z,5.47
2022-12-08T23:07:33.211Z,5.45
2022-12-08T23:10:00.556Z,5.42
2022-12-08T23:12:27.727Z,5.46
2022-12-08T23:14:55.031Z,5.40
2022-12-08T23:17:22.290Z,5.45
2022-12-08T23:19:49.439Z,5.40
2022-12-08T23:22:16.770Z,5.38
2022-12-08T23:24:43.846Z,5.41
2022-12-08T23:27:10.928Z,5.38
2022-12-08T23:29:38.017Z,5.35
2022-12-08T23:32:06.659Z,5.37
2022-12-08T23:34:34.068Z,5.32
2022-12-08T23:37:01.293Z,5.32
2022-12-08T23:39:29.374Z,5.30
2022-12-08T23:41:56.505Z,5.24
2022-12-08T23:44:23.913Z,5.26
2022-12-08T23:46:51.164Z,5.24
2022-12-08T23:49:18.378Z,5.27
2022-12-08T23:51:45.484Z,5.27
2022-12-08T23:54:12.882Z,5.28
2022-12-08T23:56:41.273Z,5.31
2022-12-08T23:59:08.747Z,5.31
